createdAt,value
2019-05-16T00:01:39.628Z,175.62
2019-05-16T00:10:01.089Z,177.53
2019-05-16T00:18:22.695Z,181.78
2019-05-16T00:26:44.404Z,182.88
2019-05-16T00:35:05.840Z,174.27
2019-05-16T00:43:28.877Z,183.68
2019-05-16T00:51:48.804Z,170.87
2019-05-16T01:00:10.750Z,184.67
2019-05-16T01:08:32.301Z,172.55
2019-05-16T01:16:57.983Z,175.07
2019-05-16T01:25:19.242Z,175.27
2019-05-16T01:33:41.214Z,176.63
2019-05-16T01:42:02.823Z,201.10
2019-05-16T01:50:24.418Z,176.15
2019-05-16T01:58:45.937Z,181.30
2019-05-16T02:07:08.527Z,179.20
2019-05-16T02:15:28.869Z,182.60
2019-05-16T02:23:51.615Z,212.12
2019-05-16T02:32:14.544Z,176.80
2019-05-16T02:40:35.881Z,184.52
2019-05-16T02:49:00.580Z,185.32
2019-05-16T02:57:21.148Z,188.87
2019-05-16T03:05:42.531Z,210.45
2019-05-16T03:14:03.892Z,206.65
2019-05-16T03:22:31.623Z,186.40
2019-05-16T03:30:54.263Z,185.48
2019-05-16T03:39:14.035Z,184.90
2019-05-16T03:47:35.636Z,183.68
2019-05-16T03:55:57.146Z,182.43
2019-05-16T04:04:20.811Z,183.65
2019-05-16T04:12:41.806Z,184.72
2019-05-16T04:21:04.024Z,185.97
2019-05-16T04:29:25.260Z,182.72
2019-05-16T04:37:47.015Z,178.97
2019-05-16T04:46:11.372Z,179.70
2019-05-16T04:54:30.904Z,192.00
2019-05-16T05:02:51.992Z,187.68
2019-05-16T05:11:13.356Z,189.20
2019-05-16T05:19:34.907Z,187.50
2019-05-16T05:27:56.261Z,194.10
2019-05-16T05:36:20.794Z,184.97
2019-05-16T05:44:44.436Z,184.40
2019-05-16T05:53:05.997Z,187.40
2019-05-16T06:01:31.438Z,186.22
2019-05-16T06:09:56.107Z,185.85
2019-05-16T06:18:13.756Z,187.82
2019-05-16T06:26:34.402Z,183.20
2019-05-16T06:35:00.208Z,188.27
2019-05-16T06:43:31.772Z,189.50
2019-05-16T06:51:51.891Z,187.65
2019-05-16T07:00:16.668Z,209.72
2019-05-16T07:08:41.383Z,195.82
2019-05-16T07:17:00.421Z,193.20
2019-05-16T07:25:26.503Z,193.78
2019-05-16T07:33:50.294Z,185.48
2019-05-16T07:42:13.889Z,192.37
2019-05-16T07:50:35.260Z,219.65
2019-05-16T07:58:57.004Z,186.12
2019-05-16T08:07:20.039Z,186.45
2019-05-16T08:15:43.556Z,190.62
2019-05-16T08:24:07.592Z,203.30
2019-05-16T08:32:30.502Z,191.40
2019-05-16T08:41:05.803Z,193.82
2019-05-16T08:49:12.256Z,196.82
2019-05-16T08:57:32.805Z,191.15
2019-05-16T09:05:55.552Z,220.12
2019-05-16T09:14:18.170Z,192.43
2019-05-16T09:22:40.386Z,197.60
2019-05-16T09:31:01.765Z,190.70
2019-05-16T09:39:27.470Z,194.72
2019-05-16T09:47:48.415Z,215.25
2019-05-16T09:56:08.554Z,192.18
2019-05-16T10:04:32.213Z,192.10
2019-05-16T10:12:53.635Z,189.85
2019-05-16T10:21:17.880Z,189.77
2019-05-16T10:29:37.836Z,215.82
2019-05-16T10:37:58.253Z,188.52
2019-05-16T10:46:19.727Z,191.40
2019-05-16T10:54:55.067Z,200.38
2019-05-16T11:03:07.086Z,200.05
2019-05-16T11:11:28.582Z,214.17
2019-05-16T11:19:49.968Z,194.95
2019-05-16T11:28:11.725Z,202.55
2019-05-16T11:36:33.367Z,208.02
2019-05-16T11:44:59.948Z,214.57
2019-05-16T11:53:23.768Z,213.22
2019-05-16T12:01:47.402Z,203.35
2019-05-16T12:10:07.529Z,196.47
2019-05-16T12:18:28.289Z,208.75
2019-05-16T12:26:52.023Z,198.65
2019-05-16T12:35:13.671Z,201.62
2019-05-16T12:43:45.636Z,206.30
2019-05-16T12:51:58.643Z,199.40
2019-05-16T13:00:20.239Z,204.95
2019-05-16T13:08:41.958Z,213.03
2019-05-16T13:17:03.443Z,215.18
2019-05-16T13:25:28.137Z,204.57
2019-05-16T13:33:48.396Z,201.12
2019-05-16T13:42:10.046Z,209.05
2019-05-16T13:50:31.648Z,213.50
2019-05-16T13:58:56.976Z,207.20
2019-05-16T14:07:17.143Z,203.50
2019-05-16T14:15:40.836Z,204.65
2019-05-16T14:24:08.636Z,209.03
2019-05-16T14:32:27.791Z,210.55
2019-05-16T14:40:51.544Z,211.62
2019-05-16T14:49:18.238Z,223.22
2019-05-16T14:57:39.888Z,217.28
2019-05-16T15:06:01.318Z,217.28
2019-05-16T15:14:27.823Z,212.78
2019-05-16T15:22:48.925Z,206.20
2019-05-16T15:31:09.794Z,205.83
2019-05-16T15:39:37.126Z,209.60
2019-05-16T15:47:59.838Z,208.07
2019-05-16T15:56:19.440Z,209.35
2019-05-16T16:04:40.980Z,212.50
2019-05-16T16:13:02.722Z,228.45
2019-05-16T16:21:27.488Z,230.47
2019-05-16T16:29:48.525Z,223.45
2019-05-16T16:38:10.442Z,208.90
2019-05-16T16:46:32.045Z,211.05
2019-05-16T16:54:53.475Z,226.82
2019-05-16T17:03:16.649Z,216.78
2019-05-16T17:11:37.118Z,219.40
2019-05-16T17:19:58.214Z,218.00
2019-05-16T17:28:19.807Z,232.90
2019-05-16T17:36:41.258Z,259.20
2019-05-16T17:45:03.814Z,269.93
2019-05-16T17:53:27.487Z,215.32
2019-05-16T18:01:48.967Z,206.25
2019-05-16T18:10:10.619Z,221.82
2019-05-16T18:18:40.114Z,212.55
2019-05-16T18:26:59.662Z,222.35
2019-05-16T18:35:22.309Z,205.15
2019-05-16T18:43:47.172Z,205.45
2019-05-16T18:52:06.518Z,217.85
2019-05-16T19:00:29.262Z,203.88
2019-05-16T19:08:48.745Z,201.80
2019-05-16T19:17:20.917Z,200.20
2019-05-16T19:25:40.411Z,196.70
2019-05-16T19:34:01.450Z,205.77
2019-05-16T19:42:23.187Z,198.30
2019-05-16T19:50:46.353Z,202.53
2019-05-16T19:59:06.836Z,199.82
2019-05-16T20:07:33.895Z,197.78
2019-05-16T20:15:53.074Z,203.45
2019-05-16T20:24:16.556Z,200.45
2019-05-16T20:32:37.105Z,204.07
2019-05-16T20:40:59.812Z,215.80
2019-05-16T20:49:19.606Z,203.22
2019-05-16T20:57:41.236Z,200.87
2019-05-16T21:06:02.629Z,196.85
2019-05-16T21:14:24.202Z,194.47
2019-05-16T21:22:47.111Z,254.65
2019-05-16T21:31:07.526Z,200.78
2019-05-16T21:39:28.922Z,205.80
2019-05-16T21:47:50.507Z,206.53
2019-05-16T21:56:11.813Z,208.78
2019-05-16T22:04:33.497Z,198.45
2019-05-16T22:12:56.865Z,208.75
2019-05-16T22:21:18.363Z,199.70
2019-05-16T22:29:39.860Z,211.75
2019-05-16T22:38:01.554Z,202.10
2019-05-16T22:46:23.107Z,203.83
2019-05-16T22:54:44.547Z,218.70
2019-05-16T23:03:06.720Z,199.40
2019-05-16T23:11:27.347Z,197.80
2019-05-16T23:19:49.577Z,212.70
2019-05-16T23:28:10.806Z,212.23
2019-05-16T23:36:32.171Z,218.07
2019-05-16T23:44:53.758Z,219.77
2019-05-16T23:53:17.710Z,213.18
